Terminal Aerodrome Forecast
Issued by NWS Pueblo, CO

Home | Current Version | Previous Version | Text Only | Print | Product List | Glossary On
Versions: 1 2 3 4 5 6 7 8 9 10 11 12 13 14 15 16 17 18 19
000
FTUS45 KPUB 271123
TAFPUB
TAF
KPUB 271123Z 2712/2812 34007KT P6SM SCT250
     FM271800 22014KT P6SM BKN200
     FM272000 25015G25KT P6SM BKN200
     FM272100 26020G32KT P6SM SCT200
     FM280200 26010KT P6SM BKN200=

USA.gov is the U.S. government's official web portal to all federal, state and local government web resources and services.